Time;durP1;ratioP1;P1;durP2;ratioP2;P2;SDS_P1;SDS_P2;PMS_P1;PMS_P2;Temp;Humidity;BMP_temperature;BMP_pressure;BME280_temperature;BME280_humidity;BME280_pressure;Samples;Min_cycle;Max_cycle;Signal;HPM_P1;HPM_P2
2023/05/02 00:01:49;;;;;;;6.70;5.97;;;10.80;99.90;;;;;;5022648;28;20188;-71
2023/05/02 00:04:15;;;;;;;7.37;6.67;;;10.70;99.90;;;;;;5024793;28;20196;-71
2023/05/02 00:06:41;;;;;;;7.03;6.43;;;10.70;99.90;;;;;;5026053;28;20446;-70
2023/05/02 00:09:07;;;;;;;6.60;6.00;;;10.60;99.90;;;;;;5024608;28;20462;-71
2023/05/02 00:11:33;;;;;;;7.22;6.53;;;10.60;99.90;;;;;;5027625;28;20588;-71
2023/05/02 00:13:58;;;;;;;6.73;6.13;;;10.50;99.90;;;;;;5025943;28;20204;-70
2023/05/02 00:16:24;;;;;;;6.53;5.93;;;10.50;99.90;;;;;;5023265;28;20188;-70
2023/05/02 00:18:49;;;;;;;7.33;6.63;;;10.50;99.90;;;;;;5016459;28;20271;-69
2023/05/02 00:21:15;;;;;;;7.30;6.60;;;10.50;99.90;;;;;;5023356;28;20682;-70
2023/05/02 00:23:41;;;;;;;6.90;6.30;;;10.40;99.90;;;;;;5023096;28;20669;-70
2023/05/02 00:26:09;;;;;;;7.33;6.33;;;10.40;99.90;;;;;;5021846;28;20716;-71
2023/05/02 00:28:35;;;;;;;7.15;6.35;;;10.70;99.90;;;;;;5023587;28;20184;-70
2023/05/02 00:31:01;;;;;;;7.03;6.33;;;10.30;99.90;;;;;;5022735;28;20210;-70
2023/05/02 00:33:26;;;;;;;7.70;6.03;;;10.60;99.90;;;;;;5021568;28;20191;-71
2023/05/02 00:35:52;;;;;;;7.67;7.00;;;10.40;99.90;;;;;;5020042;28;20272;-72
2023/05/02 00:38:17;;;;;;;7.03;6.33;;;10.40;99.90;;;;;;5020144;28;20184;-70
2023/05/02 00:40:45;;;;;;;6.83;6.23;;;10.60;99.90;;;;;;5022220;28;20287;-71
2023/05/02 00:43:11;;;;;;;6.63;6.03;;;10.60;99.90;;;;;;5019808;28;20191;-71
2023/05/02 00:45:39;;;;;;;8.05;7.25;;;10.50;99.90;;;;;;5021133;28;20189;-70
2023/05/02 00:48:06;;;;;;;7.70;6.90;;;10.20;99.90;;;;;;5023408;28;20196;-70
2023/05/02 00:50:36;;;;;;;7.13;6.53;;;10.30;99.90;;;;;;5023941;28;20205;-70
2023/05/02 00:53:03;;;;;;;8.00;7.20;;;10.30;99.90;;;;;;5024035;28;20684;-70
2023/05/02 00:55:30;;;;;;;7.82;7.18;;;10.30;99.90;;;;;;5028886;28;20570;-70
2023/05/02 00:57:55;;;;;;;7.50;6.80;;;10.20;99.90;;;;;;5027422;28;20208;-70
2023/05/02 01:00:25;;;;;;;7.10;6.40;;;10.10;99.90;;;;;;5024743;28;20624;-71
2023/05/02 01:03:05;;;;;;;7.20;6.18;;;10.30;99.90;;;;;;5029049;28;20617;-71
2023/05/02 01:05:55;;;;;;;7.35;6.75;;;10.10;99.90;;;;;;5033208;28;20205;-72
2023/05/02 01:08:42;;;;;;;7.00;6.40;;;10.00;99.90;;;;;;5023192;28;20198;-70
2023/05/02 01:11:14;;;;;;;6.80;6.20;;;10.10;99.90;;;;;;5027996;28;20656;-73
2023/05/02 01:13:42;;;;;;;6.95;6.30;;;10.20;99.90;;;;;;5026507;28;20188;-72
2023/05/02 01:16:10;;;;;;;7.05;6.30;;;10.00;99.90;;;;;;5024931;28;20209;-71
2023/05/02 01:18:39;;;;;;;7.20;6.07;;;9.80;99.90;;;;;;5030264;28;20188;-72
2023/05/02 01:21:10;;;;;;;7.45;6.65;;;10.00;99.90;;;;;;5028714;28;20736;-72
2023/05/02 01:24:08;;;;;;;7.40;6.70;;;9.80;99.90;;;;;;5026804;28;20245;-71
2023/05/02 01:26:58;;;;;;;6.70;6.10;;;10.00;99.90;;;;;;5025783;28;20206;-71
2023/05/02 01:29:26;;;;;;;7.07;6.40;;;9.70;99.90;;;;;;5030041;28;20248;-71
2023/05/02 01:31:55;;;;;;;7.40;6.80;;;9.60;99.90;;;;;;5024140;28;20199;-71
2023/05/02 01:34:22;;;;;;;6.97;6.40;;;9.60;99.90;;;;;;5026450;28;20215;-71
2023/05/02 01:36:49;;;;;;;7.18;6.57;;;9.70;99.90;;;;;;5027971;28;20180;-71
2023/05/02 01:39:20;;;;;;;7.07;6.47;;;9.70;99.90;;;;;;5029300;28;20211;-71
2023/05/02 01:41:50;;;;;;;6.40;5.80;;;9.70;99.90;;;;;;5027823;28;20188;-71
2023/05/02 01:44:17;;;;;;;6.70;6.10;;;10.00;99.90;;;;;;5028210;28;20214;-71
2023/05/02 01:46:45;;;;;;;7.65;6.13;;;10.00;99.90;;;;;;5026895;28;20237;-71
2023/05/02 01:49:10;;;;;;;7.43;6.82;;;9.80;99.90;;;;;;5028666;28;20212;-70
2023/05/02 01:51:43;;;;;;;7.33;6.70;;;10.00;99.90;;;;;;5033953;28;20210;-71
2023/05/02 01:54:11;;;;;;;6.72;6.13;;;9.70;99.90;;;;;;5029749;28;20212;-70
2023/05/02 01:56:38;;;;;;;7.30;6.38;;;9.80;99.90;;;;;;5025162;28;20700;-70
2023/05/02 01:59:07;;;;;;;6.63;6.03;;;9.90;99.90;;;;;;5024045;28;20916;-71
2023/05/02 02:01:35;;;;;;;7.70;7.00;;;9.80;99.90;;;;;;5027119;28;20690;-70
2023/05/02 02:04:03;;;;;;;7.65;6.63;;;10.10;99.90;;;;;;5027447;28;20328;-71
2023/05/02 02:06:29;;;;;;;7.32;6.45;;;10.10;99.90;;;;;;5022953;28;20212;-71
2023/05/02 02:08:54;;;;;;;7.73;7.03;;;9.80;99.90;;;;;;5025632;28;20226;-71
2023/05/02 02:11:42;;;;;;;8.47;6.90;;;9.80;99.90;;;;;;5026782;28;20441;-71
2023/05/02 02:14:16;;;;;;;8.20;6.40;;;9.90;99.90;;;;;;5029043;28;20571;-71
2023/05/02 02:16:42;;;;;;;7.18;6.55;;;9.70;99.90;;;;;;5023849;28;20716;-71
2023/05/02 02:19:11;;;;;;;6.65;6.05;;;9.60;99.90;;;;;;5026358;28;20576;-70
2023/05/02 02:21:39;;;;;;;7.32;6.72;;;10.10;99.90;;;;;;5027216;28;20495;-70
2023/05/02 02:24:06;;;;;;;7.32;6.70;;;9.80;99.90;;;;;;5022537;28;20199;-70
2023/05/02 02:26:32;;;;;;;7.72;7.03;;;9.70;99.90;;;;;;5030196;28;20215;-70
2023/05/02 02:29:00;;;;;;;7.70;7.00;;;9.60;99.90;;;;;;5025054;28;20232;-70
2023/05/02 02:31:34;;;;;;;7.13;6.45;;;9.70;99.90;;;;;;5027420;28;20191;-70
2023/05/02 02:34:00;;;;;;;7.78;7.10;;;9.60;99.90;;;;;;5021266;28;20208;-70
2023/05/02 02:36:39;;;;;;;7.50;6.80;;;9.70;99.90;;;;;;5027272;28;20194;-70
2023/05/02 02:39:39;;;;;;;7.35;6.65;;;9.60;99.90;;;;;;5020664;28;20210;-70
2023/05/02 02:42:38;;;;;;;7.35;6.75;;;9.50;99.90;;;;;;5024542;28;20190;-70
2023/05/02 02:45:13;;;;;;;8.82;7.53;;;9.50;99.90;;;;;;5024865;28;20248;-70
2023/05/02 02:48:02;;;;;;;7.90;7.10;;;9.50;99.90;;;;;;5023352;28;20186;-70
2023/05/02 02:50:31;;;;;;;8.60;7.65;;;8.90;99.90;;;;;;5025915;28;20228;-70
2023/05/02 02:53:01;;;;;;;8.13;7.35;;;9.60;99.90;;;;;;5025979;28;20195;-70
2023/05/02 02:55:45;;;;;;;8.07;7.32;;;9.50;99.90;;;;;;5028035;28;20653;-72
2023/05/02 02:58:19;;;;;;;7.30;6.60;;;9.60;99.90;;;;;;5022113;28;20668;-70
2023/05/02 03:00:46;;;;;;;7.40;6.70;;;9.60;99.90;;;;;;5019863;28;20232;-70
2023/05/02 03:03:13;;;;;;;8.20;7.50;;;9.60;99.90;;;;;;5023651;28;20234;-71
2023/05/02 03:05:41;;;;;;;11.73;7.03;;;9.40;99.90;;;;;;5025907;28;20190;-70
2023/05/02 03:08:07;;;;;;;8.07;7.32;;;9.50;99.90;;;;;;5024844;28;20604;-70
2023/05/02 03:10:32;;;;;;;7.23;6.63;;;9.40;99.90;;;;;;5022637;28;20290;-70
2023/05/02 03:12:58;;;;;;;8.17;7.37;;;9.50;99.90;;;;;;5028235;28;20192;-69
2023/05/02 03:15:57;;;;;;;12.90;7.20;;;9.40;99.90;;;;;;5022670;28;20306;-70
2023/05/02 03:18:23;;;;;;;7.82;7.13;;;9.60;99.90;;;;;;5021190;28;20256;-70
2023/05/02 03:20:49;;;;;;;9.67;7.50;;;9.50;99.90;;;;;;5021905;28;20207;-71
2023/05/02 03:23:14;;;;;;;7.83;7.13;;;9.30;99.90;;;;;;5025024;28;20199;-71
2023/05/02 03:25:40;;;;;;;8.70;7.90;;;9.40;99.90;;;;;;5023453;28;20217;-71
2023/05/02 03:28:06;;;;;;;7.80;7.20;;;9.40;99.90;;;;;;5029966;28;20182;-71
2023/05/02 03:30:31;;;;;;;7.43;6.83;;;9.50;99.90;;;;;;5023004;28;20467;-71
2023/05/02 03:32:57;;;;;;;8.43;7.63;;;9.50;99.90;;;;;;5026965;28;20241;-71
2023/05/02 03:35:22;;;;;;;9.03;7.40;;;9.60;99.90;;;;;;5023349;28;20582;-71
2023/05/02 03:37:49;;;;;;;7.33;6.63;;;9.70;99.90;;;;;;5026102;28;20186;-71
2023/05/02 03:40:15;;;;;;;7.55;6.85;;;9.80;99.90;;;;;;5021971;28;20208;-71
2023/05/02 03:42:41;;;;;;;7.40;6.80;;;10.00;99.90;;;;;;5025646;28;20188;-71
2023/05/02 03:45:07;;;;;;;7.90;7.10;;;9.80;99.90;;;;;;5021314;28;20213;-71
2023/05/02 03:47:33;;;;;;;8.60;7.82;;;9.80;99.90;;;;;;5021720;28;20210;-71
2023/05/02 03:49:59;;;;;;;7.50;6.80;;;9.60;99.90;;;;;;5019650;28;20690;-71
2023/05/02 03:52:25;;;;;;;7.45;6.85;;;10.10;99.90;;;;;;5025712;28;20227;-71
2023/05/02 03:54:50;;;;;;;7.17;6.47;;;9.90;99.90;;;;;;5022471;28;20245;-70
2023/05/02 03:57:17;;;;;;;9.00;7.20;;;9.90;99.90;;;;;;5023499;28;20205;-71
2023/05/02 03:59:44;;;;;;;7.38;6.68;;;9.80;99.90;;;;;;5025459;28;20241;-71
2023/05/02 04:02:10;;;;;;;8.40;7.50;;;10.00;99.90;;;;;;5018280;28;20274;-71
2023/05/02 04:04:37;;;;;;;7.63;6.65;;;10.00;99.90;;;;;;5021173;28;20262;-71
2023/05/02 04:07:03;;;;;;;8.45;7.65;;;9.90;99.90;;;;;;5023444;28;20195;-71
2023/05/02 04:09:28;;;;;;;8.25;7.50;;;10.10;99.90;;;;;;5022903;28;20218;-71
2023/05/02 04:11:54;;;;;;;7.97;7.17;;;10.60;99.90;;;;;;5025920;28;20184;-71
2023/05/02 04:14:20;;;;;;;7.93;7.22;;;10.40;99.90;;;;;;5024701;28;20239;-70
2023/05/02 04:16:49;;;;;;;7.60;6.90;;;10.50;99.90;;;;;;5026873;28;20270;-69
2023/05/02 04:19:17;;;;;;;7.97;7.28;;;10.90;99.90;;;;;;5026261;28;20207;-72
2023/05/02 04:21:43;;;;;;;8.77;7.88;;;10.20;99.90;;;;;;5025791;28;20198;-71
2023/05/02 04:24:09;;;;;;;8.15;7.38;;;10.20;99.90;;;;;;5028822;28;20183;-71
2023/05/02 04:26:34;;;;;;;8.30;7.50;;;10.50;99.90;;;;;;5024861;28;20712;-71
2023/05/02 04:29:00;;;;;;;8.00;7.30;;;10.30;99.90;;;;;;5028531;28;20318;-70
2023/05/02 04:31:26;;;;;;;8.18;7.38;;;10.50;99.90;;;;;;5041403;28;20186;-71
2023/05/02 04:33:52;;;;;;;8.53;7.73;;;10.40;99.90;;;;;;5028378;28;20192;-71
2023/05/02 04:36:20;;;;;;;9.43;7.50;;;10.50;99.90;;;;;;5032570;28;20416;-69
2023/05/02 04:38:46;;;;;;;7.70;7.00;;;10.50;99.90;;;;;;5028095;28;20178;-71
2023/05/02 04:41:12;;;;;;;7.03;6.43;;;10.80;99.90;;;;;;5029853;28;20190;-71
2023/05/02 04:43:37;;;;;;;7.13;6.53;;;10.60;99.90;;;;;;5027110;28;20595;-69
2023/05/02 04:46:03;;;;;;;7.83;7.13;;;10.70;99.90;;;;;;5031852;28;20547;-69
2023/05/02 04:48:29;;;;;;;8.10;7.30;;;10.50;99.90;;;;;;5028471;28;20190;-70
2023/05/02 04:50:54;;;;;;;7.80;7.10;;;10.70;99.90;;;;;;5033957;28;20230;-71
2023/05/02 04:53:22;;;;;;;8.83;7.93;;;10.70;99.90;;;;;;5027209;28;20226;-71
2023/05/02 04:55:48;;;;;;;10.55;9.55;;;11.10;99.90;;;;;;5030575;28;20208;-71
2023/05/02 04:58:14;;;;;;;7.97;7.17;;;11.00;99.90;;;;;;5027014;28;20233;-70
2023/05/02 05:00:40;;;;;;;8.70;7.90;;;10.90;99.90;;;;;;5017142;28;20460;-70
2023/05/02 05:03:05;;;;;;;8.20;7.50;;;10.60;99.90;;;;;;5029372;28;20815;-71
2023/05/02 05:05:31;;;;;;;8.60;7.80;;;10.70;99.90;;;;;;5028505;28;20191;-70
2023/05/02 05:07:57;;;;;;;9.40;8.50;;;10.70;99.90;;;;;;5028464;28;20265;-69
2023/05/02 05:10:23;;;;;;;9.00;7.60;;;10.80;99.90;;;;;;5025285;28;20672;-69
2023/05/02 05:12:48;;;;;;;11.67;10.70;;;11.00;99.90;;;;;;5029718;28;20233;-70
2023/05/02 05:15:14;;;;;;;8.57;7.47;;;11.10;99.90;;;;;;5020357;28;20307;-70
2023/05/02 05:17:41;;;;;;;10.65;7.70;;;10.90;99.90;;;;;;5026221;28;20623;-69
2023/05/02 05:20:09;;;;;;;10.90;8.07;;;11.00;99.90;;;;;;5023756;28;20210;-72
2023/05/02 05:22:38;;;;;;;8.05;7.30;;;11.10;99.90;;;;;;5026317;28;20301;-68
2023/05/02 05:25:04;;;;;;;9.10;8.30;;;11.20;99.90;;;;;;5026954;28;20189;-69
2023/05/02 05:27:29;;;;;;;8.07;7.27;;;11.30;99.90;;;;;;5025281;28;20200;-69
2023/05/02 05:29:55;;;;;;;8.33;7.63;;;11.40;99.90;;;;;;5019858;28;20304;-69
2023/05/02 05:32:20;;;;;;;8.40;7.60;;;11.50;99.90;;;;;;5020806;28;20194;-64
2023/05/02 05:34:51;;;;;;;8.63;7.73;;;11.60;99.90;;;;;;5026182;28;20206;-67
2023/05/02 05:37:17;;;;;;;8.80;7.95;;;11.70;99.90;;;;;;5015655;28;20186;-65
2023/05/02 05:39:43;;;;;;;11.85;8.95;;;11.70;99.90;;;;;;5026065;28;20281;-66
2023/05/02 05:42:08;;;;;;;8.30;7.50;;;11.60;99.90;;;;;;5022007;28;20822;-66
2023/05/02 05:44:37;;;;;;;11.33;7.50;;;11.80;99.90;;;;;;5021289;28;20278;-69
2023/05/02 05:47:03;;;;;;;8.98;7.97;;;12.10;99.90;;;;;;5019931;28;20202;-66
2023/05/02 05:49:29;;;;;;;7.27;6.63;;;12.10;99.90;;;;;;5026745;28;20255;-64
2023/05/02 05:51:55;;;;;;;7.70;6.95;;;12.50;99.90;;;;;;5022263;28;20191;-68
2023/05/02 05:54:21;;;;;;;8.90;7.60;;;12.50;99.90;;;;;;5022722;28;20218;-67
2023/05/02 05:56:47;;;;;;;8.10;7.40;;;12.50;99.90;;;;;;5021432;28;20186;-67
2023/05/02 05:59:12;;;;;;;9.10;8.20;;;12.90;99.90;;;;;;5024431;28;20468;-68
2023/05/02 06:01:38;;;;;;;8.50;7.70;;;12.70;99.90;;;;;;5023034;28;20957;-67
2023/05/02 06:04:05;;;;;;;9.50;8.43;;;13.00;99.90;;;;;;5026404;28;20193;-70
2023/05/02 06:06:31;;;;;;;9.82;8.80;;;12.90;99.90;;;;;;5020990;28;20671;-69
2023/05/02 06:08:57;;;;;;;9.48;8.48;;;13.00;99.90;;;;;;5019222;28;20657;-69
2023/05/02 06:11:23;;;;;;;9.93;8.93;;;13.00;99.90;;;;;;5019277;28;20302;-70
2023/05/02 06:13:53;;;;;;;9.52;8.70;;;12.80;99.90;;;;;;5026917;28;20186;-68
2023/05/02 06:16:19;;;;;;;9.85;8.95;;;12.90;99.90;;;;;;5023656;28;20246;-68
2023/05/02 06:18:45;;;;;;;9.20;8.30;;;13.20;99.90;;;;;;5021092;28;20320;-70
2023/05/02 06:21:11;;;;;;;11.20;10.20;;;13.50;99.90;;;;;;5021435;28;20187;-77
2023/05/02 06:23:38;;;;;;;10.43;9.43;;;13.70;99.90;;;;;;5035012;28;20554;-76
2023/05/02 06:26:04;;;;;;;9.20;8.40;;;13.50;99.90;;;;;;5025892;28;20432;-69
2023/05/02 06:28:30;;;;;;;10.98;9.75;;;13.50;99.90;;;;;;5022808;28;20186;-64
2023/05/02 06:31:01;;;;;;;11.93;10.82;;;13.70;99.90;;;;;;5025650;23;20233;-67
2023/05/02 06:33:27;;;;;;;13.20;11.90;;;13.80;99.90;;;;;;5004189;28;20254;-67
2023/05/02 06:35:53;;;;;;;11.60;10.45;;;13.60;99.90;;;;;;5001195;28;20211;-68
2023/05/02 06:38:19;;;;;;;11.40;10.30;;;14.00;99.90;;;;;;5004222;28;20188;-67
2023/05/02 06:40:45;;;;;;;13.03;11.73;;;14.20;99.90;;;;;;5003138;28;20225;-66
2023/05/02 06:43:11;;;;;;;14.03;11.60;;;14.30;99.90;;;;;;5006879;28;20784;-66
2023/05/02 06:45:38;;;;;;;13.35;12.15;;;14.30;99.90;;;;;;5007285;28;20501;-66
2023/05/02 06:48:03;;;;;;;12.90;11.70;;;14.40;99.90;;;;;;5008460;28;20540;-68
2023/05/02 06:50:29;;;;;;;12.60;11.50;;;14.60;99.90;;;;;;5006097;28;20281;-68
2023/05/02 06:52:55;;;;;;;14.27;12.70;;;14.50;99.90;;;;;;5004746;28;20179;-68
2023/05/02 06:55:21;;;;;;;12.80;11.23;;;14.40;99.90;;;;;;5002074;28;20230;-68
2023/05/02 06:57:48;;;;;;;14.50;13.10;;;14.80;99.90;;;;;;5002601;28;20800;-68
2023/05/02 07:00:16;;;;;;;14.63;13.23;;;14.40;99.90;;;;;;4997303;28;20207;-68
2023/05/02 07:02:43;;;;;;;15.35;14.00;;;14.30;99.90;;;;;;5002239;28;20187;-66
2023/05/02 07:05:08;;;;;;;13.82;12.32;;;14.40;99.90;;;;;;5003318;28;20245;-66
2023/05/02 07:07:34;;;;;;;14.17;12.87;;;14.40;99.90;;;;;;5000334;28;20190;-66
2023/05/02 07:09:59;;;;;;;14.13;12.83;;;14.50;99.90;;;;;;4998742;28;20235;-65
2023/05/02 07:12:25;;;;;;;14.97;13.57;;;14.30;99.90;;;;;;5006068;28;20303;-66
2023/05/02 07:14:51;;;;;;;16.30;14.10;;;14.20;99.90;;;;;;5006439;28;20207;-65
2023/05/02 07:17:17;;;;;;;15.40;13.90;;;14.40;99.90;;;;;;5005112;28;20450;-66
2023/05/02 07:19:43;;;;;;;15.37;13.97;;;14.00;99.90;;;;;;5006578;28;20559;-67
2023/05/02 07:22:08;;;;;;;15.50;14.00;;;14.40;99.90;;;;;;5005164;28;20555;-65
2023/05/02 07:24:34;;;;;;;15.57;13.80;;;14.30;99.90;;;;;;5004571;28;20229;-66
2023/05/02 07:27:02;;;;;;;15.70;14.20;;;14.50;99.90;;;;;;5005664;28;20681;-65
2023/05/02 07:29:27;;;;;;;15.60;14.00;;;14.50;99.90;;;;;;5004765;28;20211;-66
2023/05/02 07:31:53;;;;;;;15.63;14.17;;;14.40;99.90;;;;;;5003956;28;20546;-66
2023/05/02 07:34:19;;;;;;;19.10;15.80;;;14.30;99.90;;;;;;5007126;28;20210;-66
2023/05/02 07:36:44;;;;;;;17.83;16.03;;;14.10;99.90;;;;;;5005589;28;20570;-66
2023/05/02 07:39:10;;;;;;;16.87;15.20;;;14.20;99.90;;;;;;5004514;28;20248;-65
2023/05/02 07:41:36;;;;;;;20.27;18.37;;;14.10;99.90;;;;;;5001166;28;20179;-66
2023/05/02 07:44:01;;;;;;;17.80;16.03;;;14.20;99.90;;;;;;5001612;28;20191;-66
2023/05/02 07:46:27;;;;;;;17.60;16.00;;;14.30;99.90;;;;;;4999675;28;20186;-66
2023/05/02 07:48:53;;;;;;;18.37;15.90;;;14.30;99.90;;;;;;4999453;28;20180;-66
2023/05/02 07:51:20;;;;;;;18.63;16.70;;;14.50;99.90;;;;;;5000442;28;20277;-67
2023/05/02 07:53:46;;;;;;;17.55;15.85;;;14.70;99.90;;;;;;5003947;28;20202;-66
2023/05/02 07:56:11;;;;;;;20.00;17.13;;;14.70;99.90;;;;;;5005270;28;20544;-66
2023/05/02 07:58:37;;;;;;;17.00;15.23;;;14.90;99.90;;;;;;5005620;28;20442;-66
2023/05/02 08:01:03;;;;;;;16.60;15.00;;;14.90;99.90;;;;;;5004341;28;20624;-67
2023/05/02 08:03:29;;;;;;;20.40;18.30;;;15.10;99.90;;;;;;5004762;28;20643;-67
2023/05/02 08:05:55;;;;;;;17.88;16.20;;;15.40;99.90;;;;;;5001062;28;20986;-67
2023/05/02 08:08:21;;;;;;;19.00;17.10;;;15.20;99.90;;;;;;5004239;28;20229;-67
2023/05/02 08:10:46;;;;;;;18.37;16.47;;;15.10;99.90;;;;;;5001913;28;20210;-67
2023/05/02 08:13:12;;;;;;;18.97;16.97;;;15.20;99.90;;;;;;5001152;28;20187;-67
2023/05/02 08:15:37;;;;;;;21.30;19.17;;;15.20;99.90;;;;;;4998438;28;20246;-67
2023/05/02 08:18:03;;;;;;;22.93;20.73;;;15.00;99.90;;;;;;5004668;28;20204;-68
2023/05/02 08:20:29;;;;;;;21.23;19.20;;;14.80;99.90;;;;;;5003938;28;20226;-69
2023/05/02 08:22:54;;;;;;;21.50;19.30;;;14.60;99.90;;;;;;4999943;28;20191;-67
2023/05/02 08:25:20;;;;;;;21.30;19.20;;;15.10;99.90;;;;;;5003554;28;20643;-68
2023/05/02 08:27:45;;;;;;;21.53;19.33;;;14.90;99.90;;;;;;5003610;28;20219;-68
2023/05/02 08:30:12;;;;;;;22.00;18.60;;;15.20;99.90;;;;;;5002814;28;20262;-69
2023/05/02 08:32:37;;;;;;;21.17;19.08;;;15.00;99.90;;;;;;5002906;28;20195;-65
2023/05/02 08:35:03;;;;;;;19.70;17.67;;;15.50;99.90;;;;;;5002969;28;20214;-66
2023/05/02 08:37:30;;;;;;;20.83;18.60;;;15.70;99.90;;;;;;5003932;28;20529;-66
2023/05/02 08:39:55;;;;;;;19.00;17.02;;;15.80;99.90;;;;;;5002615;28;20848;-67
2023/05/02 08:42:22;;;;;;;20.03;18.00;;;16.10;99.90;;;;;;5005898;28;20187;-67
2023/05/02 08:44:48;;;;;;;20.85;18.67;;;16.10;99.90;;;;;;5002841;28;20183;-68
2023/05/02 08:47:14;;;;;;;22.52;19.88;;;16.30;99.90;;;;;;5002441;28;20190;-67
2023/05/02 08:49:42;;;;;;;20.33;18.40;;;16.20;99.90;;;;;;5003861;28;20194;-68
2023/05/02 08:52:11;;;;;;;19.10;17.20;;;16.50;99.90;;;;;;5003363;28;20187;-73
2023/05/02 08:54:37;;;;;;;22.08;19.88;;;16.00;99.90;;;;;;5005064;28;20199;-72
2023/05/02 08:57:04;;;;;;;20.77;18.67;;;16.10;99.90;;;;;;5003497;28;20285;-72
2023/05/02 08:59:30;;;;;;;22.27;20.20;;;16.50;99.90;;;;;;5002969;28;20214;-68
2023/05/02 09:02:01;;;;;;;21.10;18.90;;;16.80;99.90;;;;;;5002424;28;20191;-68
2023/05/02 09:04:33;;;;;;;20.58;18.58;;;17.00;99.90;;;;;;5001068;28;20282;-67
2023/05/02 09:06:58;;;;;;;19.17;17.42;;;17.20;99.80;;;;;;5002280;28;20301;-67
2023/05/02 09:09:25;;;;;;;18.93;17.13;;;17.40;99.10;;;;;;5003043;28;20719;-67
2023/05/02 09:11:51;;;;;;;19.58;17.38;;;17.40;98.30;;;;;;5006277;28;20556;-67
2023/05/02 09:14:17;;;;;;;20.25;18.30;;;17.40;98.50;;;;;;5000464;28;20210;-65
2023/05/02 09:16:43;;;;;;;20.10;18.00;;;17.90;98.40;;;;;;5006698;28;20190;-63
2023/05/02 09:19:09;;;;;;;19.10;17.30;;;17.80;98.10;;;;;;5001415;28;20214;-63
2023/05/02 09:21:40;;;;;;;20.00;16.43;;;18.00;97.30;;;;;;5004568;28;20191;-63
2023/05/02 09:24:19;;;;;;;18.25;16.50;;;18.10;96.10;;;;;;5002775;28;20241;-63
2023/05/02 09:26:59;;;;;;;18.23;16.42;;;17.80;96.50;;;;;;5005818;28;20191;-64
2023/05/02 09:29:26;;;;;;;18.70;17.00;;;17.90;96.40;;;;;;5009050;28;20222;-65
2023/05/02 09:31:52;;;;;;;18.08;16.42;;;18.20;96.50;;;;;;5007621;28;20279;-63
2023/05/02 09:34:18;;;;;;;19.23;17.33;;;18.30;95.50;;;;;;5000195;28;20199;-63
2023/05/02 09:36:52;;;;;;;18.67;16.77;;;18.70;95.60;;;;;;5004393;28;20187;-65
2023/05/02 09:39:30;;;;;;;23.70;21.17;;;18.60;95.30;;;;;;5007473;28;20212;-70
2023/05/02 09:41:57;;;;;;;20.38;18.30;;;18.90;94.50;;;;;;5001585;28;20687;-69
2023/05/02 09:44:35;;;;;;;17.15;15.50;;;18.70;94.50;;;;;;5002758;28;20737;-69
2023/05/02 09:47:01;;;;;;;16.70;15.15;;;18.90;94.30;;;;;;5004758;28;20183;-71
2023/05/02 09:49:43;;;;;;;18.17;16.47;;;18.80;94.20;;;;;;5008300;28;20549;-69
2023/05/02 09:52:11;;;;;;;17.90;16.20;;;20.20;92.90;;;;;;5006912;28;20323;-70
2023/05/02 09:54:37;;;;;;;16.73;15.13;;;21.30;90.40;;;;;;5002839;28;20476;-71
2023/05/02 09:57:03;;;;;;;16.43;14.83;;;23.00;84.60;;;;;;5004981;28;20438;-70
2023/05/02 09:59:29;;;;;;;18.23;16.63;;;24.00;80.20;;;;;;5008723;28;20214;-69
2023/05/02 10:02:02;;;;;;;16.43;14.90;;;23.70;79.00;;;;;;5002145;28;20450;-70
2023/05/02 10:04:30;;;;;;;17.33;15.83;;;23.50;80.70;;;;;;5007006;28;20274;-69
2023/05/02 10:06:57;;;;;;;18.33;16.70;;;23.00;79.90;;;;;;5002991;28;20481;-69
2023/05/02 10:09:25;;;;;;;16.73;15.27;;;22.30;81.60;;;;;;5008047;28;20501;-69
2023/05/02 10:11:53;;;;;;;16.93;15.43;;;21.90;80.70;;;;;;5004084;28;20966;-70
2023/05/02 10:14:24;;;;;;;19.07;17.37;;;21.60;82.30;;;;;;5002941;28;20461;-69
2023/05/02 10:17:08;;;;;;;19.42;17.63;;;21.10;84.60;;;;;;5001815;28;20446;-72
2023/05/02 10:20:21;;;;;;;17.80;16.20;;;20.70;87.40;;;;;;5004854;28;20209;-71
2023/05/02 10:22:49;;;;;;;17.00;15.40;;;20.70;86.50;;;;;;4945520;28;20508;-70
2023/05/02 10:25:15;;;;;;;18.58;16.60;;;20.70;88.10;;;;;;4943386;28;20203;-71
2023/05/02 10:27:41;;;;;;;18.63;16.70;;;20.80;87.00;;;;;;4977825;28;20359;-70
2023/05/02 10:30:08;;;;;;;18.43;16.83;;;21.40;85.30;;;;;;5004520;28;20564;-70
2023/05/02 10:32:36;;;;;;;17.80;16.17;;;21.70;80.90;;;;;;5006728;28;21080;-70
2023/05/02 10:35:04;;;;;;;17.43;15.73;;;21.30;80.60;;;;;;5006556;28;20993;-71
2023/05/02 10:37:35;;;;;;;17.73;16.15;;;21.10;82.20;;;;;;5001857;28;20446;-71
2023/05/02 10:40:00;;;;;;;18.85;17.17;;;21.10;82.50;;;;;;4999710;28;20204;-71
2023/05/02 10:42:27;;;;;;;17.50;15.90;;;21.00;82.00;;;;;;5005626;28;20175;-71
2023/05/02 10:44:53;;;;;;;18.07;16.33;;;21.40;82.20;;;;;;5004827;28;20581;-72
2023/05/02 10:47:21;;;;;;;17.03;15.33;;;21.30;80.40;;;;;;5007861;28;20529;-72
2023/05/02 10:49:59;;;;;;;18.75;16.95;;;21.40;81.70;;;;;;5006469;28;20210;-72
2023/05/02 10:52:37;;;;;;;13.20;12.10;;;20.90;82.10;;;;;;5003668;28;20686;-72
2023/05/02 10:55:22;;;;;;;14.70;13.30;;;20.90;80.50;;;;;;5005867;28;20488;-72
2023/05/02 10:57:57;;;;;;;16.10;14.70;;;20.90;81.10;;;;;;5002091;28;20668;-74
2023/05/02 11:00:31;;;;;;;15.13;13.68;;;21.00;82.80;;;;;;5003430;28;20297;-70
2023/05/02 11:02:57;;;;;;;14.48;13.10;;;20.70;82.00;;;;;;5002154;28;20179;-69
2023/05/02 11:05:23;;;;;;;14.03;12.73;;;20.60;82.10;;;;;;5002808;28;20237;-72
2023/05/02 11:08:09;;;;;;;14.20;13.00;;;21.10;82.80;;;;;;5004185;28;20262;-69
2023/05/02 11:10:35;;;;;;;14.47;13.23;;;21.40;80.00;;;;;;5005434;28;20206;-69
2023/05/02 11:13:00;;;;;;;14.03;12.73;;;22.30;77.20;;;;;;5000125;28;20446;-68
2023/05/02 11:15:31;;;;;;;13.13;11.87;;;22.80;74.40;;;;;;5004979;28;20298;-68
2023/05/02 11:18:01;;;;;;;16.80;14.23;;;22.80;74.10;;;;;;5005559;28;20183;-66
2023/05/02 11:20:27;;;;;;;13.90;12.60;;;22.50;73.40;;;;;;5007067;28;20454;-67
2023/05/02 11:22:55;;;;;;;13.53;12.33;;;23.20;74.00;;;;;;5003554;28;20465;-71
2023/05/02 11:25:38;;;;;;;12.03;11.03;;;23.80;70.80;;;;;;5000665;28;20532;-66
2023/05/02 11:28:06;;;;;;;14.77;13.30;;;23.90;70.10;;;;;;5004092;28;20977;-69
2023/05/02 11:30:40;;;;;;;15.40;14.00;;;23.40;70.60;;;;;;4998587;28;20473;-68
2023/05/02 11:33:06;;;;;;;15.10;13.80;;;22.10;73.30;;;;;;5006810;28;20540;-67
2023/05/02 11:35:34;;;;;;;16.40;14.73;;;21.90;76.10;;;;;;5005384;28;20556;-66
2023/05/02 11:38:20;;;;;;;15.15;13.75;;;21.20;75.90;;;;;;5002160;28;20691;-67
2023/05/02 11:40:56;;;;;;;15.40;14.07;;;20.80;77.60;;;;;;5000876;28;20214;-70
2023/05/02 11:43:24;;;;;;;13.63;12.43;;;20.80;78.20;;;;;;5007717;28;20821;-67
2023/05/02 11:45:50;;;;;;;14.57;13.27;;;20.90;78.50;;;;;;5007869;28;20454;-67
2023/05/02 11:48:18;;;;;;;15.90;14.50;;;20.90;79.20;;;;;;5008488;28;20199;-66
2023/05/02 11:50:46;;;;;;;15.02;13.68;;;21.20;77.30;;;;;;5004013;28;20466;-68
2023/05/02 11:53:14;;;;;;;16.58;15.02;;;21.10;78.60;;;;;;4997884;28;20187;-68
2023/05/02 11:55:51;;;;;;;16.67;14.97;;;21.00;80.10;;;;;;5000543;28;20545;-69
2023/05/02 11:58:21;;;;;;;18.35;16.65;;;20.80;80.20;;;;;;5006591;28;20584;-68
2023/05/02 12:00:47;;;;;;;18.75;17.00;;;20.90;79.80;;;;;;5003196;28;20203;-69
2023/05/02 12:03:26;;;;;;;16.92;15.32;;;21.20;80.50;;;;;;4999065;28;20338;-70
2023/05/02 12:05:52;;;;;;;16.63;15.10;;;20.90;79.60;;;;;;5003032;28;20654;-68
2023/05/02 12:08:20;;;;;;;18.50;16.60;;;20.90;78.30;;;;;;5005125;28;20198;-67
2023/05/02 12:10:45;;;;;;;19.33;17.42;;;20.60;79.80;;;;;;5001070;28;20218;-71
2023/05/02 12:13:11;;;;;;;17.40;15.80;;;20.20;81.30;;;;;;5009014;28;20632;-66
2023/05/02 12:15:37;;;;;;;17.42;15.63;;;20.90;79.00;;;;;;5004358;28;20453;-68
2023/05/02 12:18:03;;;;;;;16.87;15.37;;;21.00;78.90;;;;;;5006643;28;20179;-69
2023/05/02 12:20:28;;;;;;;17.40;15.80;;;20.80;78.80;;;;;;5004411;28;20234;-69
2023/05/02 12:22:54;;;;;;;18.87;17.00;;;21.30;79.70;;;;;;5003231;28;20197;-68
2023/05/02 12:25:20;;;;;;;18.83;16.93;;;21.00;79.60;;;;;;5003576;28;20265;-68
2023/05/02 12:28:00;;;;;;;17.15;15.35;;;20.70;80.70;;;;;;5006177;28;20264;-69
2023/05/02 12:30:27;;;;;;;17.75;15.95;;;20.80;79.20;;;;;;4999931;28;20222;-67
2023/05/02 12:33:00;;;;;;;19.10;17.20;;;21.00;78.90;;;;;;5002273;28;20205;-67
2023/05/02 12:35:27;;;;;;;19.48;17.58;;;21.00;79.70;;;;;;5006470;28;20228;-67
2023/05/02 12:37:53;;;;;;;18.60;16.80;;;20.80;80.10;;;;;;5004850;28;20179;-69
2023/05/02 12:40:19;;;;;;;21.50;19.40;;;20.90;81.20;;;;;;5006039;28;20462;-68
2023/05/02 12:43:03;;;;;;;20.87;18.77;;;20.60;81.50;;;;;;5004545;28;20531;-67
2023/05/02 12:45:35;;;;;;;19.98;17.90;;;20.90;83.10;;;;;;5002258;28;20480;-66